BAW974 EGLL-LJLJ
Flight info
| Callsign | BAW974 |
|---|---|
| Flight time | N/A |
| Altitude | 37000 |
| Route | DET L6 DVR UL9 KONAN UL607 FERDI DCT LIRSU DCT KRH DCT UTABA L607 XEBIX Z2 TUNUM Z204 GEDSO DCT VEKEN DCT DEGUM DEGUM2L |
| Aircraft | A320/M-SDE3FGHIRWY/LB1 |
Departure
| Time | N/A |
|---|---|
| Airport | London Heathrow Airport (EGLL) |
Arrival
| Time | 2026-04-10 21:43 |
|---|---|
| Airport | Ljubljana Jože Pučnik Airport (LJLJ) |
| Time | Latitude | Longitude | Altitude | Speed | Heading |
|---|---|---|---|---|---|
| 2026-04-10 20:35 | 50.68631 | 4.55299 | 37095 ft | 514 kts | 112° |
| 2026-04-10 20:36 | 50.65534 | 4.67546 | 37096 ft | 514 kts | 112° |
| 2026-04-10 20:36 | 50.62870 | 4.78033 | 37096 ft | 514 kts | 112° |
| 2026-04-10 20:37 | 50.60222 | 4.88451 | 37101 ft | 514 kts | 112° |
| 2026-04-10 20:37 | 50.57554 | 4.98879 | 37104 ft | 514 kts | 112° |
| 2026-04-10 20:38 | 50.55298 | 5.07622 | 37108 ft | 513 kts | 112° |
| 2026-04-10 20:38 | 50.52113 | 5.19902 | 37110 ft | 513 kts | 112° |
| 2026-04-10 20:39 | 50.49459 | 5.30125 | 37113 ft | 513 kts | 112° |
| 2026-04-10 20:39 | 50.46755 | 5.40494 | 37112 ft | 513 kts | 112° |
| 2026-04-10 20:40 | 50.44037 | 5.50840 | 37113 ft | 512 kts | 112° |
| 2026-04-10 20:40 | 50.41312 | 5.61156 | 37106 ft | 512 kts | 112° |
| 2026-04-10 20:41 | 50.38580 | 5.71489 | 37114 ft | 512 kts | 112° |
| 2026-04-10 20:41 | 50.35862 | 5.81724 | 37113 ft | 511 kts | 112° |
| 2026-04-10 20:42 | 50.33122 | 5.92001 | 37117 ft | 511 kts | 112° |
| 2026-04-10 20:42 | 50.30367 | 6.02258 | 37113 ft | 511 kts | 112° |
| 2026-04-10 20:43 | 50.27604 | 6.12498 | 37123 ft | 511 kts | 112° |
| 2026-04-10 20:43 | 50.25303 | 6.20989 | 37125 ft | 510 kts | 112° |
| 2026-04-10 20:44 | 50.22530 | 6.31193 | 37123 ft | 510 kts | 112° |
| 2026-04-10 20:44 | 50.19701 | 6.41444 | 37113 ft | 510 kts | 116° |
| 2026-04-10 20:45 | 50.15802 | 6.50667 | 37108 ft | 509 kts | 131° |
| 2026-04-10 20:45 | 50.11233 | 6.59095 | 37098 ft | 509 kts | 131° |
| 2026-04-10 20:46 | 50.06671 | 6.67535 | 37090 ft | 509 kts | 131° |
| 2026-04-10 20:46 | 50.02104 | 6.75973 | 37089 ft | 509 kts | 131° |
| 2026-04-10 20:47 | 49.97526 | 6.84392 | 37086 ft | 510 kts | 131° |
| 2026-04-10 20:47 | 49.92928 | 6.92788 | 37093 ft | 510 kts | 131° |
| 2026-04-10 20:48 | 49.88323 | 7.01170 | 37096 ft | 510 kts | 131° |
| 2026-04-10 20:48 | 49.83716 | 7.09535 | 37102 ft | 510 kts | 131° |
| 2026-04-10 20:49 | 49.79110 | 7.17898 | 37101 ft | 510 kts | 131° |
| 2026-04-10 20:49 | 49.74489 | 7.26253 | 37107 ft | 510 kts | 131° |
| 2026-04-10 20:50 | 49.69858 | 7.34589 | 37103 ft | 511 kts | 131° |
| 2026-04-10 20:50 | 49.65226 | 7.42905 | 37097 ft | 511 kts | 131° |
| 2026-04-10 20:51 | 49.60583 | 7.51207 | 37102 ft | 511 kts | 131° |
| 2026-04-10 20:51 | 49.55930 | 7.59479 | 37102 ft | 511 kts | 131° |
| 2026-04-10 20:52 | 49.51280 | 7.67743 | 37115 ft | 511 kts | 131° |
| 2026-04-10 20:52 | 49.46624 | 7.75998 | 37118 ft | 511 kts | 131° |
| 2026-04-10 20:53 | 49.41956 | 7.84235 | 37119 ft | 511 kts | 131° |
| 2026-04-10 20:53 | 49.37280 | 7.92469 | 37119 ft | 511 kts | 131° |
| 2026-04-10 20:54 | 49.32597 | 8.00693 | 37119 ft | 511 kts | 131° |
| 2026-04-10 20:54 | 49.27916 | 8.08901 | 37115 ft | 511 kts | 131° |
| 2026-04-10 20:55 | 49.23224 | 8.17086 | 37116 ft | 511 kts | 131° |
| 2026-04-10 20:55 | 49.18524 | 8.25242 | 37117 ft | 511 kts | 131° |
| 2026-04-10 20:56 | 49.13819 | 8.33402 | 37113 ft | 511 kts | 131° |
| 2026-04-10 20:56 | 49.09110 | 8.41545 | 37115 ft | 511 kts | 131° |
| 2026-04-10 20:57 | 49.04396 | 8.49662 | 37116 ft | 511 kts | 131° |
| 2026-04-10 20:57 | 48.99639 | 8.57692 | 37116 ft | 511 kts | 135° |
| 2026-04-10 20:58 | 48.94182 | 8.64616 | 37110 ft | 511 kts | 142° |
| 2026-04-10 20:58 | 48.88618 | 8.71325 | 37108 ft | 511 kts | 142° |
| 2026-04-10 20:59 | 48.83048 | 8.78031 | 37109 ft | 511 kts | 142° |
| 2026-04-10 20:59 | 48.77474 | 8.84717 | 37109 ft | 511 kts | 142° |
| 2026-04-10 21:00 | 48.71850 | 8.91440 | 37111 ft | 511 kts | 142° |
| 2026-04-10 21:00 | 48.66268 | 8.98103 | 37112 ft | 511 kts | 142° |
| 2026-04-10 21:01 | 48.60680 | 9.04749 | 37114 ft | 511 kts | 142° |
| 2026-04-10 21:01 | 48.55121 | 9.11340 | 37117 ft | 511 kts | 142° |
| 2026-04-10 21:02 | 48.49487 | 9.18004 | 37113 ft | 511 kts | 142° |
| 2026-04-10 21:02 | 48.43888 | 9.24615 | 37111 ft | 511 kts | 142° |
| 2026-04-10 21:03 | 48.38320 | 9.31159 | 37112 ft | 511 kts | 142° |
| 2026-04-10 21:03 | 48.32710 | 9.37741 | 37109 ft | 511 kts | 142° |
| 2026-04-10 21:04 | 48.27098 | 9.44302 | 37110 ft | 511 kts | 142° |
| 2026-04-10 21:04 | 48.21560 | 9.50980 | 37104 ft | 511 kts | 139° |
| 2026-04-10 21:05 | 48.16216 | 9.58004 | 37111 ft | 511 kts | 137° |
| 2026-04-10 21:05 | 48.10873 | 9.65115 | 37117 ft | 511 kts | 138° |
| 2026-04-10 21:06 | 48.05944 | 9.71527 | 37117 ft | 511 kts | 139° |
| 2026-04-10 21:06 | 48.00505 | 9.78469 | 37115 ft | 511 kts | 139° |
| 2026-04-10 21:07 | 47.95094 | 9.85351 | 37108 ft | 511 kts | 139° |
| 2026-04-10 21:07 | 47.89692 | 9.92249 | 37110 ft | 511 kts | 139° |
| 2026-04-10 21:08 | 47.84323 | 9.99102 | 37111 ft | 511 kts | 139° |
| 2026-04-10 21:08 | 47.78744 | 10.05731 | 37109 ft | 511 kts | 143° |
| 2026-04-10 21:09 | 47.72983 | 10.11936 | 37109 ft | 511 kts | 144° |
| 2026-04-10 21:09 | 47.67187 | 10.18129 | 37106 ft | 511 kts | 143° |
| 2026-04-10 21:10 | 47.61493 | 10.24376 | 37102 ft | 511 kts | 143° |
| 2026-04-10 21:10 | 47.55786 | 10.30699 | 37107 ft | 512 kts | 142° |
| 2026-04-10 21:11 | 47.50047 | 10.37034 | 37114 ft | 511 kts | 143° |
| 2026-04-10 21:11 | 47.44510 | 10.43630 | 37116 ft | 510 kts | 132° |
| 2026-04-10 21:12 | 47.40379 | 10.51976 | 37124 ft | 500 kts | 111° |
| 2026-04-10 21:12 | 47.38140 | 10.61496 | 37113 ft | 484 kts | 94° |
| 2026-04-10 21:13 | 47.36816 | 10.71255 | 37135 ft | 486 kts | 95° |
| 2026-04-10 21:13 | 47.35435 | 10.81029 | 37143 ft | 486 kts | 95° |
| 2026-04-10 21:14 | 47.34041 | 10.90797 | 37146 ft | 487 kts | 95° |
| 2026-04-10 21:14 | 47.32655 | 11.00566 | 37120 ft | 488 kts | 95° |
| 2026-04-10 21:15 | 47.30573 | 11.15209 | 37142 ft | 489 kts | 95° |
| 2026-04-10 21:15 | 47.29157 | 11.25019 | 37156 ft | 490 kts | 95° |
| 2026-04-10 21:16 | 47.27968 | 11.33233 | 37159 ft | 489 kts | 95° |
| 2026-04-10 21:16 | 47.26541 | 11.43029 | 37152 ft | 489 kts | 95° |
| 2026-04-10 21:17 | 47.24288 | 11.52580 | 37152 ft | 502 kts | 113° |
| 2026-04-10 21:17 | 47.20385 | 11.61290 | 37132 ft | 507 kts | 121° |
| 2026-04-10 21:18 | 47.16349 | 11.69731 | 37129 ft | 508 kts | 121° |
| 2026-04-10 21:18 | 47.12293 | 11.78210 | 37139 ft | 508 kts | 121° |
| 2026-04-10 21:19 | 47.08257 | 11.86780 | 37135 ft | 506 kts | 116° |
| 2026-04-10 21:19 | 47.05110 | 11.95882 | 37140 ft | 502 kts | 111° |
| 2026-04-10 21:20 | 47.02014 | 12.05159 | 37137 ft | 503 kts | 111° |
| 2026-04-10 21:20 | 46.98938 | 12.14319 | 37131 ft | 502 kts | 111° |
| 2026-04-10 21:21 | 46.95851 | 12.23467 | 37127 ft | 502 kts | 111° |
| 2026-04-10 21:21 | 46.92764 | 12.32596 | 37125 ft | 501 kts | 112° |
| 2026-04-10 21:22 | 46.91215 | 12.37169 | 36420 ft | 506 kts | 112° |
| 2026-04-10 21:22 | 46.89633 | 12.41841 | 35431 ft | 516 kts | 112° |
| 2026-04-10 21:22 | 46.88033 | 12.46549 | 34578 ft | 520 kts | 112° |
| 2026-04-10 21:22 | 46.86414 | 12.51314 | 33757 ft | 524 kts | 112° |
| 2026-04-10 21:23 | 46.84800 | 12.56044 | 33212 ft | 519 kts | 113° |
| 2026-04-10 21:23 | 46.83200 | 12.60708 | 32593 ft | 517 kts | 113° |
| 2026-04-10 21:23 | 46.81598 | 12.65366 | 31982 ft | 515 kts | 113° |
| 2026-04-10 21:23 | 46.79991 | 12.70034 | 31352 ft | 514 kts | 113° |
| 2026-04-10 21:24 | 46.78391 | 12.74686 | 30729 ft | 514 kts | 113° |
| 2026-04-10 21:24 | 46.76788 | 12.79336 | 30104 ft | 513 kts | 113° |
| 2026-04-10 21:24 | 46.75187 | 12.83977 | 29446 ft | 510 kts | 113° |
| 2026-04-10 21:24 | 46.73603 | 12.88559 | 28851 ft | 503 kts | 113° |
| 2026-04-10 21:25 | 46.72028 | 12.93106 | 28248 ft | 501 kts | 114° |
| 2026-04-10 21:25 | 46.70465 | 12.97625 | 27672 ft | 497 kts | 114° |
| 2026-04-10 21:25 | 46.68915 | 13.02103 | 27110 ft | 493 kts | 114° |
| 2026-04-10 21:25 | 46.67868 | 13.05118 | 26734 ft | 490 kts | 114° |
| 2026-04-10 21:26 | 46.65841 | 13.10923 | 26028 ft | 483 kts | 114° |
| 2026-04-10 21:26 | 46.64323 | 13.15264 | 25487 ft | 479 kts | 115° |
| 2026-04-10 21:26 | 46.62816 | 13.19565 | 24977 ft | 475 kts | 115° |
| 2026-04-10 21:26 | 46.61300 | 13.23889 | 24453 ft | 471 kts | 115° |
| 2026-04-10 21:27 | 46.59817 | 13.28119 | 23922 ft | 469 kts | 115° |
| 2026-04-10 21:27 | 46.58336 | 13.32337 | 23341 ft | 467 kts | 115° |
| 2026-04-10 21:27 | 46.56865 | 13.36520 | 22835 ft | 462 kts | 115° |
| 2026-04-10 21:27 | 46.55454 | 13.40633 | 22343 ft | 457 kts | 114° |
| 2026-04-10 21:28 | 46.54125 | 13.44802 | 21841 ft | 453 kts | 112° |
| 2026-04-10 21:28 | 46.52872 | 13.48966 | 21332 ft | 449 kts | 111° |
| 2026-04-10 21:28 | 46.51640 | 13.53180 | 20810 ft | 446 kts | 111° |
| 2026-04-10 21:28 | 46.50441 | 13.57267 | 20302 ft | 444 kts | 111° |
| 2026-04-10 21:29 | 46.49218 | 13.61372 | 19779 ft | 443 kts | 111° |
| 2026-04-10 21:29 | 46.47962 | 13.65516 | 19254 ft | 441 kts | 111° |
| 2026-04-10 21:29 | 46.46715 | 13.69576 | 18729 ft | 440 kts | 112° |
| 2026-04-10 21:29 | 46.45468 | 13.73606 | 18175 ft | 436 kts | 112° |
| 2026-04-10 21:30 | 46.44244 | 13.77546 | 17644 ft | 432 kts | 112° |
| 2026-04-10 21:30 | 46.43017 | 13.81501 | 17136 ft | 428 kts | 112° |
| 2026-04-10 21:30 | 46.41803 | 13.85415 | 16625 ft | 423 kts | 112° |
| 2026-04-10 21:30 | 46.40599 | 13.89290 | 16103 ft | 419 kts | 112° |
| 2026-04-10 21:31 | 46.39413 | 13.93112 | 15602 ft | 414 kts | 112° |
| 2026-04-10 21:31 | 46.38241 | 13.96894 | 15079 ft | 409 kts | 112° |
| 2026-04-10 21:31 | 46.37068 | 14.00682 | 14588 ft | 405 kts | 112° |
| 2026-04-10 21:31 | 46.35922 | 14.04375 | 14096 ft | 401 kts | 112° |
| 2026-04-10 21:32 | 46.34783 | 14.08036 | 13577 ft | 397 kts | 113° |
| 2026-04-10 21:32 | 46.33658 | 14.11648 | 13084 ft | 392 kts | 113° |
| 2026-04-10 21:32 | 46.32542 | 14.15224 | 12599 ft | 387 kts | 113° |
| 2026-04-10 21:32 | 46.31439 | 14.18742 | 12128 ft | 382 kts | 114° |
| 2026-04-10 21:33 | 46.30347 | 14.22215 | 11668 ft | 377 kts | 114° |
| 2026-04-10 21:33 | 46.29269 | 14.25644 | 11194 ft | 372 kts | 114° |
| 2026-04-10 21:33 | 46.28223 | 14.28973 | 10740 ft | 355 kts | 114° |
| 2026-04-10 21:33 | 46.27220 | 14.32164 | 10533 ft | 332 kts | 114° |
| 2026-04-10 21:34 | 46.26289 | 14.35114 | 10358 ft | 318 kts | 114° |
| 2026-04-10 21:34 | 46.25378 | 14.37999 | 10196 ft | 315 kts | 114° |
| 2026-04-10 21:34 | 46.24450 | 14.40862 | 9989 ft | 312 kts | 120° |
| 2026-04-10 21:34 | 46.23213 | 14.43407 | 9756 ft | 307 kts | 134° |
| 2026-04-10 21:35 | 46.21685 | 14.45411 | 9513 ft | 288 kts | 143° |
| 2026-04-10 21:35 | 46.20146 | 14.47202 | 9276 ft | 282 kts | 142° |
| 2026-04-10 21:35 | 46.18625 | 14.48975 | 9038 ft | 280 kts | 142° |
| 2026-04-10 21:35 | 46.17116 | 14.50738 | 8804 ft | 278 kts | 142° |
| 2026-04-10 21:36 | 46.15607 | 14.52492 | 8578 ft | 278 kts | 142° |
| 2026-04-10 21:36 | 46.14112 | 14.54223 | 8338 ft | 274 kts | 142° |
| 2026-04-10 21:36 | 46.12629 | 14.55937 | 8114 ft | 272 kts | 142° |
| 2026-04-10 21:36 | 46.11158 | 14.57631 | 7887 ft | 270 kts | 141° |
| 2026-04-10 21:37 | 46.09695 | 14.59319 | 7661 ft | 268 kts | 141° |
| 2026-04-10 21:37 | 46.08244 | 14.60993 | 7436 ft | 266 kts | 141° |
| 2026-04-10 21:37 | 46.06832 | 14.62676 | 7214 ft | 261 kts | 133° |
| 2026-04-10 21:37 | 46.05998 | 14.64853 | 6974 ft | 243 kts | 98° |
| 2026-04-10 21:38 | 46.06156 | 14.67214 | 6336 ft | 239 kts | 62° |
| 2026-04-10 21:38 | 46.07220 | 14.69004 | 5681 ft | 238 kts | 30° |
| 2026-04-10 21:38 | 46.08797 | 14.69634 | 5131 ft | 237 kts | 357° |
| 2026-04-10 21:38 | 46.10326 | 14.68942 | 4623 ft | 235 kts | 324° |
| 2026-04-10 21:39 | 46.11366 | 14.67145 | 4173 ft | 230 kts | 296° |
| 2026-04-10 21:39 | 46.12109 | 14.65243 | 4049 ft | 212 kts | 303° |
| 2026-04-10 21:39 | 46.12975 | 14.63624 | 3721 ft | 199 kts | 309° |
| 2026-04-10 21:39 | 46.13862 | 14.62170 | 3376 ft | 188 kts | 311° |
| 2026-04-10 21:40 | 46.14728 | 14.60792 | 3036 ft | 181 kts | 306° |
| 2026-04-10 21:40 | 46.15422 | 14.59298 | 2716 ft | 173 kts | 301° |
| 2026-04-10 21:40 | 46.16054 | 14.57905 | 2330 ft | 161 kts | 307° |
| 2026-04-10 21:40 | 46.16744 | 14.56684 | 2072 ft | 152 kts | 308° |
| 2026-04-10 21:41 | 46.17370 | 14.55487 | 2050 ft | 151 kts | 305° |
| 2026-04-10 21:41 | 46.17998 | 14.54304 | 1928 ft | 147 kts | 308° |
| 2026-04-10 21:41 | 46.18620 | 14.53112 | 1821 ft | 147 kts | 303° |
| 2026-04-10 21:41 | 46.19197 | 14.51902 | 1689 ft | 146 kts | 306° |
| 2026-04-10 21:42 | 46.19810 | 14.50738 | 1547 ft | 145 kts | 307° |
| 2026-04-10 21:42 | 46.20417 | 14.49572 | 1463 ft | 146 kts | 307° |
| 2026-04-10 21:42 | 46.21015 | 14.48410 | 1354 ft | 145 kts | 305° |
| 2026-04-10 21:42 | 46.21621 | 14.47229 | 1250 ft | 145 kts | 306° |
| 2026-04-10 21:43 | 46.22205 | 14.46064 | 1241 ft | 132 kts | 306° |
| 2026-04-10 21:43 | 46.22581 | 14.45366 | 1251 ft | 64 kts | 306° |
| 2026-04-10 21:43 | 46.22777 | 14.44962 | 1264 ft | 29 kts | 305° |
| 2026-04-10 21:43 | 46.22895 | 14.44730 | 1267 ft | 29 kts | 306° |
| 2026-04-10 21:44 | 46.23018 | 14.44500 | 1271 ft | 29 kts | 312° |
| 2026-04-10 21:44 | 46.23141 | 14.44265 | 1278 ft | 29 kts | 306° |
| 2026-04-10 21:44 | 46.23257 | 14.44100 | 1284 ft | 17 kts | 336° |
| 2026-04-10 21:44 | 46.23371 | 14.44104 | 1285 ft | 18 kts | 33° |
| 2026-04-10 21:45 | 46.23367 | 14.44264 | 1283 ft | 20 kts | 120° |
| 2026-04-10 21:45 | 46.23293 | 14.44422 | 1276 ft | 20 kts | 126° |
| 2026-04-10 21:45 | 46.23222 | 14.44562 | 1271 ft | 18 kts | 127° |
| 2026-04-10 21:45 | 46.23143 | 14.44709 | 1266 ft | 20 kts | 129° |
| 2026-04-10 21:46 | 46.23092 | 14.44862 | 1263 ft | 15 kts | 72° |
| 2026-04-10 21:46 | 46.23155 | 14.44955 | 1260 ft | 14 kts | 47° |
| 2026-04-10 21:46 | 46.23127 | 14.45071 | 1267 ft | 10 kts | 125° |
| 2026-04-10 21:46 | 46.23087 | 14.45154 | 1259 ft | 10 kts | 124° |
| 2026-04-10 21:47 | 46.23044 | 14.45245 | 1261 ft | 8 kts | 124° |
| 2026-04-10 21:47 | 46.23033 | 14.45268 | 1258 ft | 4 kts | 124° |
| 2026-04-10 21:47 | 46.23016 | 14.45306 | 1263 ft | 6 kts | 123° |
| 2026-04-10 21:47 | 46.23024 | 14.45343 | 1267 ft | 4 kts | 37° |
| 2026-04-10 21:48 | 46.23040 | 14.45360 | 1258 ft | 1 kts | 37° |
| 2026-04-10 21:48 | 46.23044 | 14.45364 | 1258 ft | 0 kts | 37° |
| 2026-04-10 21:48 | 46.23045 | 14.45365 | 1258 ft | 0 kts | 37° |
| 2026-04-10 21:48 | 46.23046 | 14.45367 | 1258 ft | 0 kts | 37° |
| 2026-04-10 21:49 | 46.23048 | 14.45368 | 1258 ft | 0 kts | 37° |